Time;durP1;ratioP1;P1;durP2;ratioP2;P2;SDS_P1;SDS_P2;PMS_P1;PMS_P2;Temp;Humidity;BMP_temperature;BMP_pressure;BME280_temperature;BME280_humidity;BME280_pressure;Samples;Min_cycle;Max_cycle;Signal;HPM_P1;HPM_P2
2021/10/19 00:02:03;;;;;;;25.15;15.05;;;;;;;6.08;83.05;97153.56;5110168;28;20044;-72
2021/10/19 00:04:29;;;;;;;25.23;15.23;;;;;;;6.11;83.16;97156.56;5110212;28;20051;-71
2021/10/19 00:06:56;;;;;;;23.38;13.68;;;;;;;6.13;82.89;97161.69;5109980;28;20043;-72
2021/10/19 00:09:24;;;;;;;29.48;13.73;;;;;;;6.06;82.83;97159.25;5110241;28;20048;-71
2021/10/19 00:11:50;;;;;;;19.67;12.57;;;;;;;5.99;83.14;97147.88;5109900;28;20050;-74
2021/10/19 00:14:17;;;;;;;22.52;13.57;;;;;;;5.87;83.49;97150.81;5111919;27;20509;-72
2021/10/19 00:16:43;;;;;;;19.27;12.98;;;;;;;5.81;83.89;97149.19;5109602;27;20074;-72
2021/10/19 00:19:10;;;;;;;21.45;12.98;;;;;;;5.80;84.47;97146.75;5110184;27;20051;-72
2021/10/19 00:21:36;;;;;;;24.95;13.80;;;;;;;5.82;84.62;97148.09;5109771;27;20048;-72
2021/10/19 00:24:03;;;;;;;23.80;13.55;;;;;;;5.82;84.27;97142.69;5110093;27;20086;-72
2021/10/19 00:26:31;;;;;;;20.10;13.10;;;;;;;5.83;84.98;97143.50;5109767;27;20051;-72
2021/10/19 00:28:57;;;;;;;23.15;14.35;;;;;;;5.86;84.67;97148.38;5110324;27;20044;-72
2021/10/19 00:31:24;;;;;;;23.42;14.65;;;;;;;5.81;84.30;97135.69;5109134;27;20066;-72
2021/10/19 00:33:50;;;;;;;21.73;14.10;;;;;;;5.81;84.84;97135.69;5109128;27;20074;-72
2021/10/19 00:36:17;;;;;;;26.52;15.25;;;;;;;5.78;85.12;97130.78;5109637;27;20113;-72
2021/10/19 00:38:43;;;;;;;21.52;14.50;;;;;;;5.75;84.77;97131.34;5109347;27;20511;-72
2021/10/19 00:41:12;;;;;;;22.63;15.45;;;;;;;5.74;84.74;97125.13;5109998;27;20066;-72
2021/10/19 00:43:40;;;;;;;19.40;13.63;;;;;;;5.76;84.76;97128.38;5111342;27;20494;-72
2021/10/19 00:46:12;;;;;;;21.90;14.25;;;;;;;5.81;84.73;97124.06;5109705;28;20044;-72
2021/10/19 00:48:40;;;;;;;20.75;13.98;;;;;;;5.82;84.46;97123.78;5109513;28;20124;-72
2021/10/19 00:51:07;;;;;;;23.15;14.27;;;;;;;5.81;84.65;97124.88;5105082;28;20152;-72
2021/10/19 00:53:33;;;;;;;20.33;14.05;;;;;;;5.85;84.34;97120.56;5109475;28;20047;-72
2021/10/19 00:56:00;;;;;;;19.55;12.45;;;;;;;5.91;83.16;97119.50;5108941;28;20047;-72
2021/10/19 00:58:26;;;;;;;19.30;13.25;;;;;;;5.91;82.14;97108.69;5105086;28;20039;-72
2021/10/19 01:00:54;;;;;;;19.83;12.73;;;;;;;5.90;82.29;97107.03;5109339;28;20043;-72
2021/10/19 01:03:21;;;;;;;18.38;12.23;;;;;;;5.93;81.58;97111.91;5108961;28;20052;-72
2021/10/19 01:05:47;;;;;;;18.13;11.93;;;;;;;5.86;81.18;97111.34;5108897;28;20040;-72
2021/10/19 01:08:13;;;;;;;17.83;11.73;;;;;;;5.78;81.45;97117.28;5109392;28;20048;-72
2021/10/19 01:10:40;;;;;;;19.10;11.27;;;;;;;5.76;81.23;97120.25;5109759;28;20047;-72
2021/10/19 01:13:07;;;;;;;18.15;12.13;;;;;;;5.71;81.49;97120.25;5108934;28;20051;-72
2021/10/19 01:15:35;;;;;;;18.50;11.50;;;;;;;5.72;81.35;97126.47;5108734;28;20050;-72
2021/10/19 01:18:03;;;;;;;15.95;11.38;;;;;;;5.69;81.54;97121.59;5109220;27;20043;-71
2021/10/19 01:20:35;;;;;;;17.63;12.43;;;;;;;5.67;81.30;97124.56;5109492;27;20039;-72
2021/10/19 01:23:02;;;;;;;18.75;11.77;;;;;;;5.67;81.63;97129.16;5108570;27;20039;-70
2021/10/19 01:25:31;;;;;;;18.77;11.90;;;;;;;5.65;81.55;97124.03;5108849;27;20043;-72
2021/10/19 01:28:00;;;;;;;17.15;12.45;;;;;;;5.64;81.60;97125.13;5111608;27;20071;-72
2021/10/19 01:30:27;;;;;;;19.05;12.13;;;;;;;5.63;81.79;97133.47;5108729;28;20043;-72
2021/10/19 01:32:55;;;;;;;17.30;11.85;;;;;;;5.65;81.63;97131.31;5107883;28;20050;-72
2021/10/19 01:35:32;;;;;;;18.77;11.80;;;;;;;5.67;80.89;97129.97;5108711;27;20060;-74
2021/10/19 01:37:59;;;;;;;16.52;11.57;;;;;;;5.65;80.91;97125.94;5108793;28;20043;-73
2021/10/19 01:40:25;;;;;;;15.30;10.95;;;;;;;5.61;81.49;97127.53;5107873;28;20052;-72
2021/10/19 01:42:52;;;;;;;17.90;11.95;;;;;;;5.63;81.06;97128.88;5107890;28;20048;-72
2021/10/19 01:45:19;;;;;;;17.55;11.57;;;;;;;5.63;80.94;97128.06;5107574;28;20716;-72
2021/10/19 01:47:46;;;;;;;18.63;12.32;;;;;;;5.60;81.04;97125.91;5108954;28;20047;-72
2021/10/19 01:50:14;;;;;;;20.98;13.75;;;;;;;5.53;80.86;97123.44;5107526;28;20055;-72
2021/10/19 01:52:43;;;;;;;17.10;12.32;;;;;;;5.52;81.24;97115.63;5108824;28;20676;-72
2021/10/19 01:55:11;;;;;;;18.13;13.18;;;;;;;5.50;81.61;97121.28;5107620;28;20036;-72
2021/10/19 01:57:38;;;;;;;18.65;13.27;;;;;;;5.47;81.42;97119.13;5111574;27;20051;-72
2021/10/19 02:00:07;;;;;;;22.27;13.68;;;;;;;5.45;81.58;97113.97;5108157;28;20051;-72
2021/10/19 02:02:33;;;;;;;19.90;13.60;;;;;;;5.46;81.49;97109.38;5108223;28;20046;-73
2021/10/19 02:05:00;;;;;;;21.45;12.48;;;;;;;5.45;81.24;97105.06;5108188;28;20047;-72
2021/10/19 02:07:27;;;;;;;18.05;12.20;;;;;;;5.42;81.47;97106.41;5107831;28;20051;-73
2021/10/19 02:09:54;;;;;;;18.15;12.10;;;;;;;5.42;81.18;97100.19;5108547;28;20040;-73
2021/10/19 02:12:21;;;;;;;18.83;12.23;;;;;;;5.40;81.23;97100.47;5106690;28;20214;-72
2021/10/19 02:14:47;;;;;;;19.75;12.45;;;;;;;5.39;81.50;97090.75;5108566;28;20047;-72
2021/10/19 02:17:14;;;;;;;21.42;13.52;;;;;;;5.39;81.92;97079.94;5107215;28;20046;-72
2021/10/19 02:19:40;;;;;;;20.30;13.32;;;;;;;5.42;81.84;97083.97;5108562;28;20051;-73
2021/10/19 02:22:07;;;;;;;19.30;12.50;;;;;;;5.45;81.50;97089.66;5106884;28;20043;-72
2021/10/19 02:24:33;;;;;;;19.10;12.40;;;;;;;5.49;81.16;97085.38;5107974;28;20036;-72
2021/10/19 02:27:01;;;;;;;18.65;12.35;;;;;;;5.52;80.68;97083.19;5108639;28;20054;-72
2021/10/19 02:29:27;;;;;;;17.75;11.77;;;;;;;5.49;80.26;97082.66;5109667;27;20043;-72
2021/10/19 02:31:54;;;;;;;18.08;12.00;;;;;;;5.50;80.36;97076.19;5107936;28;20048;-72
2021/10/19 02:34:22;;;;;;;16.23;11.63;;;;;;;5.50;79.67;97081.59;5107131;28;20059;-72
2021/10/19 02:36:49;;;;;;;16.75;10.95;;;;;;;5.49;79.23;97079.97;5108237;28;20051;-72
2021/10/19 02:39:16;;;;;;;21.42;13.00;;;;;;;5.39;80.12;97077.25;5107191;28;20044;-72
2021/10/19 02:41:42;;;;;;;17.45;11.32;;;;;;;5.34;80.08;97071.03;5108134;28;20062;-72
2021/10/19 02:44:10;;;;;;;18.60;12.13;;;;;;;5.33;80.65;97075.63;5106979;28;20052;-72
2021/10/19 02:46:37;;;;;;;22.38;12.57;;;;;;;5.34;80.88;97062.91;5108371;28;20051;-72
2021/10/19 02:49:05;;;;;;;20.33;12.85;;;;;;;5.31;81.14;97064.25;5107537;28;20048;-72
2021/10/19 02:51:32;;;;;;;19.00;12.35;;;;;;;5.31;81.16;97056.16;5107624;28;20047;-72
2021/10/19 02:53:58;;;;;;;21.45;12.38;;;;;;;5.32;81.06;97057.75;5107880;28;20048;-72
2021/10/19 02:56:25;;;;;;;21.10;12.70;;;;;;;5.33;81.35;97056.72;5107411;28;20044;-72
2021/10/19 02:58:51;;;;;;;17.20;11.23;;;;;;;5.34;81.21;97052.94;5115410;27;20043;-72
2021/10/19 03:01:19;;;;;;;19.10;12.00;;;;;;;5.34;80.75;97049.41;5110419;27;20043;-72
2021/10/19 03:03:45;;;;;;;20.92;12.05;;;;;;;5.36;80.05;97056.16;5112108;28;20047;-72
2021/10/19 03:06:12;;;;;;;16.88;10.80;;;;;;;5.39;79.42;97061.03;5109876;27;20051;-74
2021/10/19 03:08:39;;;;;;;14.88;10.15;;;;;;;5.37;79.53;97065.06;5111639;28;20047;-72
2021/10/19 03:11:05;;;;;;;12.30;8.80;;;;;;;5.20;78.67;97066.13;5110339;28;20044;-72
2021/10/19 03:13:32;;;;;;;15.48;8.68;;;;;;;5.15;78.96;97066.09;5111541;27;20043;-73
2021/10/19 03:15:58;;;;;;;13.30;9.25;;;;;;;5.09;78.76;97064.47;5111141;28;20050;-72
2021/10/19 03:18:26;;;;;;;15.55;10.57;;;;;;;5.03;79.66;97070.13;5110728;28;20050;-74
2021/10/19 03:20:54;;;;;;;15.20;10.77;;;;;;;5.00;79.66;97065.25;5111387;27;20043;-72
2021/10/19 03:23:20;;;;;;;17.10;10.45;;;;;;;4.98;79.81;97063.63;5109563;28;20681;-72
2021/10/19 03:25:47;;;;;;;14.13;10.05;;;;;;;5.02;79.73;97073.91;5110954;28;20047;-72
2021/10/19 03:28:13;;;;;;;16.83;10.88;;;;;;;5.03;79.64;97067.41;5112603;27;20047;-72
2021/10/19 03:30:40;;;;;;;17.17;10.25;;;;;;;5.00;79.82;97070.63;5110731;28;20044;-72
2021/10/19 03:33:06;;;;;;;18.42;10.32;;;;;;;4.95;79.98;97079.53;5109208;27;20047;-72
2021/10/19 03:35:34;;;;;;;16.73;11.18;;;;;;;4.89;80.21;97075.19;5110311;28;20443;-73
2021/10/19 03:38:01;;;;;;;15.65;10.35;;;;;;;4.86;80.21;97075.72;5110246;28;20039;-72
2021/10/19 03:40:27;;;;;;;14.65;10.02;;;;;;;4.82;80.16;97083.53;5110019;28;20510;-74
2021/10/19 03:42:54;;;;;;;14.32;9.80;;;;;;;4.83;80.42;97081.63;5110629;28;20043;-73
2021/10/19 03:45:20;;;;;;;15.38;10.40;;;;;;;4.78;80.12;97079.72;5109629;28;20055;-72
2021/10/19 03:47:47;;;;;;;14.98;10.80;;;;;;;4.75;80.64;97085.66;5111042;28;20052;-72
2021/10/19 03:50:14;;;;;;;18.85;11.48;;;;;;;4.70;80.69;97072.97;5109351;28;20054;-72
2021/10/19 03:52:42;;;;;;;16.75;11.82;;;;;;;4.74;81.24;97078.63;5111080;27;20047;-72
2021/10/19 03:55:10;;;;;;;17.05;11.00;;;;;;;4.79;81.25;97072.44;5109726;28;20066;-72
2021/10/19 03:57:39;;;;;;;16.45;10.93;;;;;;;4.82;80.96;97071.94;5113814;27;20055;-72
2021/10/19 04:00:06;;;;;;;15.52;11.50;;;;;;;4.78;80.72;97074.31;5109964;28;20055;-72
2021/10/19 04:02:32;;;;;;;14.85;10.55;;;;;;;4.79;81.43;97081.34;5110538;28;20044;-72
2021/10/19 04:04:59;;;;;;;16.67;11.30;;;;;;;4.82;80.87;97086.22;5110247;28;20039;-72
2021/10/19 04:07:26;;;;;;;14.02;10.35;;;;;;;4.82;80.89;97105.13;5108639;27;20047;-73
2021/10/19 04:09:54;;;;;;;14.63;10.52;;;;;;;4.84;80.80;97110.25;5109424;28;20039;-72
2021/10/19 04:12:20;;;;;;;18.50;11.27;;;;;;;4.84;80.88;97116.44;5108562;28;20054;-72
2021/10/19 04:14:47;;;;;;;15.55;10.30;;;;;;;4.83;80.95;97114.03;5110551;28;20051;-72
2021/10/19 04:17:16;;;;;;;14.25;10.25;;;;;;;4.86;81.03;97119.72;5108577;27;20055;-72
2021/10/19 04:19:42;;;;;;;15.07;10.75;;;;;;;4.88;80.24;97122.94;5109738;28;20083;-72
2021/10/19 04:22:09;;;;;;;12.48;9.05;;;;;;;4.87;79.54;97128.63;5108460;28;20051;-72
2021/10/19 04:24:35;;;;;;;13.18;9.30;;;;;;;4.84;79.58;97132.63;5109334;28;20608;-71
2021/10/19 04:27:03;;;;;;;13.27;9.75;;;;;;;4.78;80.05;97132.88;5110108;27;20044;-71
2021/10/19 04:29:29;;;;;;;14.00;10.20;;;;;;;4.80;80.34;97141.50;5110682;27;20047;-74
2021/10/19 04:31:56;;;;;;;13.15;9.38;;;;;;;4.80;80.66;97141.50;5109258;27;20054;-75
2021/10/19 04:34:22;;;;;;;12.13;9.48;;;;;;;4.80;80.81;97147.72;5108349;27;20746;-73
2021/10/19 04:36:49;;;;;;;15.27;9.13;;;;;;;4.74;80.65;97143.38;5109918;28;20426;-74
2021/10/19 04:39:15;;;;;;;16.67;9.98;;;;;;;4.65;80.62;97144.97;5108841;27;20055;-74
2021/10/19 04:41:44;;;;;;;13.55;9.85;;;;;;;4.60;81.29;97153.03;5109924;28;20052;-73
2021/10/19 04:44:12;;;;;;;18.50;10.70;;;;;;;4.58;81.57;97150.56;5108728;28;20160;-73
2021/10/19 04:46:40;;;;;;;15.68;10.68;;;;;;;4.58;81.98;97136.25;5109347;28;20055;-73
2021/10/19 04:49:07;;;;;;;14.10;9.80;;;;;;;4.55;82.37;97128.72;5108844;28;20499;-73
2021/10/19 04:51:33;;;;;;;15.38;11.05;;;;;;;4.53;82.43;97131.66;5109033;28;20051;-74
2021/10/19 04:54:00;;;;;;;17.20;11.35;;;;;;;4.53;82.37;97128.13;5109562;28;20053;-74
2021/10/19 04:56:26;;;;;;;16.73;11.32;;;;;;;4.56;82.78;97127.63;5108573;28;20044;-73
2021/10/19 04:58:53;;;;;;;14.82;11.18;;;;;;;4.60;83.01;97126.84;5109733;27;20051;-74
2021/10/19 05:01:21;;;;;;;14.05;10.27;;;;;;;4.68;83.05;97136.34;5108016;27;20406;-74
2021/10/19 05:03:47;;;;;;;16.33;10.70;;;;;;;4.71;82.53;97125.84;5109729;27;20059;-74
2021/10/19 05:06:14;;;;;;;14.18;10.07;;;;;;;4.72;82.77;97123.94;5107601;27;20044;-72
2021/10/19 05:08:41;;;;;;;16.63;10.60;;;;;;;4.72;82.71;97124.75;5108895;27;20039;-71
2021/10/19 05:11:07;;;;;;;15.50;10.77;;;;;;;4.77;82.89;97120.47;5107435;27;20119;-72
2021/10/19 05:13:34;;;;;;;16.00;12.00;;;;;;;4.79;82.65;97119.13;5108969;27;20055;-73
2021/10/19 05:16:01;;;;;;;14.77;10.48;;;;;;;4.81;82.57;97111.59;5108554;27;20044;-75
2021/10/19 05:18:28;;;;;;;17.48;10.73;;;;;;;4.82;82.55;97118.59;5107288;27;20479;-75
2021/10/19 05:20:55;;;;;;;16.17;11.38;;;;;;;4.86;82.64;97122.41;5106855;27;20705;-74
2021/10/19 05:23:22;;;;;;;17.95;11.15;;;;;;;4.88;82.40;97122.94;5106525;27;20047;-74
2021/10/19 05:25:48;;;;;;;14.50;10.18;;;;;;;4.89;82.83;97116.47;5108094;27;20055;-74
2021/10/19 05:28:14;;;;;;;17.75;11.45;;;;;;;4.95;82.49;97118.13;5107738;27;20054;-74
2021/10/19 05:30:41;;;;;;;17.58;11.00;;;;;;;5.03;81.68;97107.91;5108379;28;20497;-74
2021/10/19 05:33:08;;;;;;;18.25;11.05;;;;;;;5.03;81.65;97119.50;5107214;27;20070;-74
2021/10/19 05:35:36;;;;;;;17.67;11.45;;;;;;;5.10;81.82;97119.25;5108198;28;20130;-72
2021/10/19 05:38:02;;;;;;;19.13;11.35;;;;;;;5.11;81.72;97113.59;5108152;28;20052;-75
2021/10/19 05:40:29;;;;;;;17.95;10.70;;;;;;;5.09;81.70;97104.16;5108343;28;20058;-74
2021/10/19 05:42:56;;;;;;;19.70;11.20;;;;;;;5.07;81.93;97104.41;5108700;27;20559;-74
2021/10/19 05:45:22;;;;;;;21.33;11.63;;;;;;;5.09;81.39;97107.66;5105950;28;20040;-75
2021/10/19 05:47:48;;;;;;;21.67;12.00;;;;;;;5.11;81.59;97110.09;5108273;28;20051;-74
2021/10/19 05:50:17;;;;;;;21.50;11.23;;;;;;;5.13;81.62;97114.16;5105503;28;20043;-74
2021/10/19 05:52:45;;;;;;;17.85;11.77;;;;;;;5.18;82.13;97124.97;5108495;27;20553;-74
2021/10/19 05:55:12;;;;;;;20.45;11.48;;;;;;;5.28;81.64;97124.22;5106198;27;20040;-74
2021/10/19 05:57:39;;;;;;;23.23;12.40;;;;;;;5.26;82.11;97120.94;5106293;28;20069;-76
2021/10/19 06:00:08;;;;;;;17.90;11.30;;;;;;;5.31;82.68;97120.97;5106012;28;20043;-74
2021/10/19 06:02:34;;;;;;;19.55;12.05;;;;;;;5.36;82.85;97106.66;5107984;28;20054;-75
2021/10/19 06:05:01;;;;;;;17.02;11.15;;;;;;;5.46;82.71;97110.19;5107956;28;20039;-75
2021/10/19 06:07:27;;;;;;;20.20;10.43;;;;;;;5.53;82.54;97111.84;5107563;28;20054;-75
2021/10/19 06:09:55;;;;;;;23.13;11.80;;;;;;;5.55;82.35;97109.69;5108357;28;20418;-74
2021/10/19 06:12:22;;;;;;;21.25;11.18;;;;;;;5.54;82.40;97097.28;5106793;28;20048;-74
2021/10/19 06:14:48;;;;;;;19.75;11.40;;;;;;;5.57;82.72;97097.53;5108806;28;20043;-74
2021/10/19 06:17:15;;;;;;;17.55;10.45;;;;;;;5.65;82.92;97101.59;5106771;28;20046;-74
2021/10/19 06:19:41;;;;;;;17.40;10.15;;;;;;;5.70;82.91;97102.41;5108387;28;20437;-75
2021/10/19 06:22:08;;;;;;;17.75;11.20;;;;;;;5.73;82.94;97096.47;5107098;28;20047;-74
2021/10/19 06:24:34;;;;;;;19.95;10.07;;;;;;;5.81;82.79;97089.72;5107924;28;20051;-75
2021/10/19 06:27:03;;;;;;;18.35;10.02;;;;;;;5.87;83.05;97099.47;5107907;28;20040;-71
2021/10/19 06:29:29;;;;;;;18.65;9.98;;;;;;;5.97;83.48;97102.19;5107925;28;20059;-75
2021/10/19 06:31:56;;;;;;;17.52;9.93;;;;;;;6.09;83.59;97106.53;5109172;28;20047;-77
2021/10/19 06:34:22;;;;;;;14.20;8.85;;;;;;;6.18;83.49;97107.59;5111239;27;20050;-74
2021/10/19 06:36:49;;;;;;;13.23;8.50;;;;;;;6.30;83.47;97104.63;5112732;28;20052;-75
2021/10/19 06:39:16;;;;;;;13.80;8.43;;;;;;;6.38;83.44;97107.59;5111316;28;20040;-75
2021/10/19 06:41:42;;;;;;;13.50;8.13;;;;;;;6.46;83.63;97109.72;5112303;28;20043;-75
2021/10/19 06:44:10;;;;;;;11.00;6.55;;;;;;;6.55;83.56;97107.28;5111165;27;20032;-75
2021/10/19 06:46:36;;;;;;;11.77;7.22;;;;;;;6.62;83.21;97101.59;5111781;28;20050;-75
2021/10/19 06:49:03;;;;;;;9.05;6.20;;;;;;;6.66;83.16;97097.25;5111416;28;20039;-75
2021/10/19 06:51:29;;;;;;;11.98;7.05;;;;;;;6.71;82.97;97083.72;5111729;28;20067;-73
2021/10/19 06:53:56;;;;;;;8.38;5.65;;;;;;;6.73;81.49;97087.78;5112159;27;20044;-72
2021/10/19 06:56:22;;;;;;;8.93;5.93;;;;;;;6.71;80.98;97094.53;5110240;27;20042;-73
2021/10/19 06:58:48;;;;;;;9.43;5.50;;;;;;;6.72;81.39;97096.16;5112346;27;20050;-73
2021/10/19 07:01:17;;;;;;;14.88;6.22;;;;;;;6.80;81.67;97098.31;5110887;27;20070;-73
2021/10/19 07:03:43;;;;;;;8.68;5.65;;;;;;;6.89;81.80;97102.06;5112302;28;20073;-72
2021/10/19 07:06:11;;;;;;;8.07;5.25;;;;;;;6.99;81.89;97102.00;5110273;27;20786;-73
2021/10/19 07:08:38;;;;;;;8.77;5.60;;;;;;;7.13;81.49;97117.69;5111671;27;20649;-74
2021/10/19 07:11:05;;;;;;;8.20;4.85;;;;;;;7.20;81.42;97118.19;5110646;28;20044;-73
2021/10/19 07:13:31;;;;;;;9.38;5.80;;;;;;;7.30;81.40;97127.06;5111465;27;20046;-72
2021/10/19 07:15:58;;;;;;;13.40;6.18;;;;;;;7.38;81.64;97127.59;5111686;28;20050;-73
2021/10/19 07:18:26;;;;;;;11.30;6.70;;;;;;;7.47;81.67;97129.47;5110506;28;20069;-73
2021/10/19 07:20:54;;;;;;;10.10;5.90;;;;;;;7.56;81.75;97122.34;5111605;28;20617;-73
2021/10/19 07:23:21;;;;;;;9.15;5.43;;;;;;;7.70;81.12;97122.53;5111437;28;20047;-73
2021/10/19 07:25:47;;;;;;;8.95;5.38;;;;;;;7.80;80.73;97130.63;5111506;27;20066;-73
2021/10/19 07:28:14;;;;;;;11.57;5.53;;;;;;;7.93;80.78;97125.66;5110518;27;20824;-73
2021/10/19 07:30:41;;;;;;;9.55;5.25;;;;;;;8.01;81.08;97139.44;5111544;28;20044;-73
2021/10/19 07:33:07;;;;;;;11.35;5.40;;;;;;;8.09;81.13;97140.72;5110043;28;20044;-73
2021/10/19 07:35:35;;;;;;;8.50;4.75;;;;;;;8.19;81.20;97134.41;5111049;27;20074;-73
2021/10/19 07:38:02;;;;;;;8.43;4.88;;;;;;;8.31;80.99;97138.38;5110779;27;20039;-71
2021/10/19 07:40:28;;;;;;;9.40;5.38;;;;;;;8.46;81.11;97132.06;5110418;28;20059;-73
2021/10/19 07:42:55;;;;;;;7.22;4.85;;;;;;;8.60;81.06;97129.47;5111154;28;20043;-74
2021/10/19 07:45:23;;;;;;;7.38;5.03;;;;;;;8.71;80.90;97135.59;5109962;28;20051;-73
2021/10/19 07:47:50;;;;;;;7.68;4.35;;;;;;;8.78;79.82;97136.09;5111131;28;20100;-73
2021/10/19 07:50:19;;;;;;;6.75;3.85;;;;;;;8.86;79.96;97133.53;5109572;28;20046;-73
2021/10/19 07:52:49;;;;;;;8.60;4.25;;;;;;;8.88;79.06;97142.25;5111065;28;20050;-73
2021/10/19 07:55:16;;;;;;;10.13;4.32;;;;;;;8.96;78.84;97143.50;5109377;28;20122;-73
2021/10/19 07:57:44;;;;;;;6.65;4.43;;;;;;;9.02;79.21;97131.47;5111219;27;20054;-73
2021/10/19 08:00:12;;;;;;;7.47;3.92;;;;;;;9.04;78.76;97139.34;5110094;28;20101;-73
2021/10/19 08:02:41;;;;;;;7.82;4.18;;;;;;;9.07;78.58;97145.00;5110550;27;20044;-74
2021/10/19 08:05:12;;;;;;;7.13;3.97;;;;;;;9.11;78.06;97145.25;5110173;28;20055;-74
2021/10/19 08:07:39;;;;;;;6.35;3.60;;;;;;;9.15;77.17;97152.53;5109598;28;20043;-74
2021/10/19 08:10:08;;;;;;;8.32;3.85;;;;;;;9.20;77.11;97154.38;5110138;27;20043;-73
2021/10/19 08:12:35;;;;;;;6.63;3.88;;;;;;;9.25;77.25;97161.66;5109765;27;20043;-74
2021/10/19 08:15:01;;;;;;;6.40;4.00;;;;;;;9.29;77.21;97152.66;5110167;28;20046;-70
2021/10/19 08:17:28;;;;;;;6.10;3.60;;;;;;;9.35;76.94;97151.50;5109499;28;20135;-73
2021/10/19 08:19:59;;;;;;;7.88;4.45;;;;;;;9.38;77.02;97155.53;5110196;28;20043;-73
2021/10/19 08:22:25;;;;;;;7.63;3.72;;;;;;;9.42;77.19;97145.69;5109548;28;20097;-73
2021/10/19 08:24:52;;;;;;;6.45;3.40;;;;;;;9.49;77.32;97150.78;5110029;27;20633;-74
2021/10/19 08:27:19;;;;;;;6.88;4.25;;;;;;;9.59;76.54;97165.03;5110015;28;20130;-73
2021/10/19 08:29:46;;;;;;;6.50;3.58;;;;;;;9.70;75.71;97162.19;5109795;27;20043;-73
2021/10/19 08:32:12;;;;;;;6.93;3.67;;;;;;;9.75;75.41;97164.84;5109803;28;20054;-73
2021/10/19 08:34:39;;;;;;;5.07;2.97;;;;;;;9.84;75.27;97169.34;5109240;28;20050;-73
2021/10/19 08:37:05;;;;;;;5.55;2.80;;;;;;;9.88;74.27;97173.09;5110062;28;20040;-74
2021/10/19 08:39:32;;;;;;;5.88;2.90;;;;;;;9.95;74.18;97159.13;5109527;28;20067;-75
2021/10/19 08:41:58;;;;;;;4.97;2.75;;;;;;;10.04;74.46;97162.81;5110435;28;20051;-73
2021/10/19 08:44:26;;;;;;;5.65;3.08;;;;;;;10.13;74.06;97165.69;5109064;28;20056;-73
2021/10/19 08:46:53;;;;;;;4.90;3.20;;;;;;;10.25;74.66;97167.97;5109703;28;20043;-74
2021/10/19 08:49:20;;;;;;;5.60;3.45;;;;;;;10.28;74.62;97168.16;5109255;28;20384;-73
2021/10/19 08:51:47;;;;;;;6.13;3.63;;;;;;;10.36;76.07;97169.44;5109607;27;20571;-74
2021/10/19 08:54:13;;;;;;;5.43;3.05;;;;;;;10.43;75.70;97161.69;5109185;27;20402;-73
2021/10/19 08:56:40;;;;;;;5.68;2.92;;;;;;;10.49;75.32;97168.66;5108912;28;20048;-73
2021/10/19 08:59:08;;;;;;;6.13;3.53;;;;;;;10.56;74.45;97169.09;5109618;27;20050;-73
2021/10/19 09:01:37;;;;;;;5.72;3.47;;;;;;;10.65;75.18;97150.19;5108891;27;20052;-74
2021/10/19 09:04:07;;;;;;;6.28;3.20;;;;;;;10.67;75.76;97159.66;5109286;27;20093;-73
2021/10/19 09:06:35;;;;;;;6.32;4.38;;;;;;;10.74;75.85;97163.91;5108493;27;20051;-73
2021/10/19 09:09:06;;;;;;;5.63;3.30;;;;;;;10.79;75.72;97167.34;5109093;27;20040;-72
2021/10/19 09:11:45;;;;;;;4.63;2.90;;;;;;;10.86;76.04;97164.25;5109034;27;20048;-74
2021/10/19 09:14:12;;;;;;;5.18;3.10;;;;;;;10.87;75.82;97157.69;5108328;27;20531;-74
2021/10/19 09:16:42;;;;;;;5.05;2.97;;;;;;;10.91;76.53;97170.41;5109374;27;20047;-74
2021/10/19 09:19:09;;;;;;;6.13;3.08;;;;;;;10.92;76.61;97160.31;5108063;27;20039;-75
2021/10/19 09:21:36;;;;;;;4.93;3.03;;;;;;;10.95;77.01;97165.16;5109570;27;20043;-74
2021/10/19 09:24:17;;;;;;;19.17;4.10;;;;;;;10.94;77.01;97160.81;5108185;27;20039;-76
2021/10/19 09:26:53;;;;;;;5.18;2.97;;;;;;;10.97;77.27;97168.41;5109074;27;20044;-73
2021/10/19 09:29:20;;;;;;;6.93;3.33;;;;;;;10.96;77.40;97166.75;5108781;27;20047;-73
2021/10/19 09:31:50;;;;;;;8.90;3.25;;;;;;;10.97;76.30;97171.94;5108302;27;20055;-75
2021/10/19 09:34:17;;;;;;;5.55;3.40;;;;;;;10.92;76.36;97173.94;5108702;28;20461;-74
2021/10/19 09:36:43;;;;;;;8.40;3.42;;;;;;;10.89;77.00;97166.34;5107935;28;20043;-73
2021/10/19 09:39:10;;;;;;;7.90;3.65;;;;;;;10.88;77.35;97175.66;5108664;28;20463;-74
2021/10/19 09:41:44;;;;;;;6.05;3.25;;;;;;;10.88;77.79;97175.66;5108286;28;20051;-74
2021/10/19 09:44:12;;;;;;;7.50;3.78;;;;;;;10.85;77.70;97177.03;5108124;28;20490;-74
2021/10/19 09:46:40;;;;;;;7.53;4.40;;;;;;;10.86;77.62;97177.88;5108232;28;20051;-74
2021/10/19 09:49:09;;;;;;;5.93;3.60;;;;;;;10.92;77.24;97176.66;5107825;28;20063;-75
2021/10/19 09:51:37;;;;;;;6.82;4.63;;;;;;;10.99;77.27;97187.97;5108171;28;20140;-75
2021/10/19 09:54:07;;;;;;;6.07;3.50;;;;;;;11.02;77.79;97187.38;5107710;28;20047;-74
2021/10/19 09:56:35;;;;;;;5.93;3.50;;;;;;;11.06;77.52;97182.13;5108890;28;20040;-73
2021/10/19 09:59:02;;;;;;;6.25;3.45;;;;;;;11.10;76.58;97183.16;5107084;27;20051;-72
2021/10/19 10:01:29;;;;;;;7.63;3.20;;;;;;;11.16;76.80;97188.19;5109162;28;20495;-74
2021/10/19 10:03:56;;;;;;;9.90;3.72;;;;;;;11.15;77.17;97181.13;5107693;28;20055;-75
2021/10/19 10:06:25;;;;;;;6.28;3.33;;;;;;;11.18;77.63;97180.53;5107207;27;20040;-74
2021/10/19 10:08:52;;;;;;;6.05;3.00;;;;;;;11.19;76.43;97179.44;5107489;28;20550;-74
2021/10/19 10:11:21;;;;;;;6.07;2.88;;;;;;;11.18;76.02;97180.53;5108117;28;20051;-76
2021/10/19 10:13:56;;;;;;;5.97;3.20;;;;;;;11.22;75.79;97181.56;5107721;28;20058;-74
2021/10/19 10:16:23;;;;;;;5.50;3.05;;;;;;;11.26;76.18;97167.31;5108321;28;20109;-73
2021/10/19 10:18:49;;;;;;;4.78;2.85;;;;;;;11.29;75.49;97177.63;5108558;28;20043;-74
2021/10/19 10:21:18;;;;;;;5.63;3.22;;;;;;;11.34;75.85;97180.25;5107089;28;20048;-73
2021/10/19 10:23:47;;;;;;;6.82;3.10;;;;;;;11.39;75.84;97174.69;5108595;28;20043;-73
2021/10/19 10:26:25;;;;;;;6.63;2.92;;;;;;;11.41;76.02;97164.28;5107031;28;20052;-74
2021/10/19 10:28:52;;;;;;;4.93;2.80;;;;;;;11.41;76.48;97161.56;5108257;28;20046;-76
2021/10/19 10:31:20;;;;;;;9.50;3.33;;;;;;;11.44;76.01;97166.41;5106989;28;20043;-76
2021/10/19 10:33:50;;;;;;;4.93;2.75;;;;;;;11.48;75.96;97167.41;5108077;28;20089;-75
2021/10/19 10:36:17;;;;;;;6.72;3.40;;;;;;;11.49;75.71;97160.84;5107739;28;20059;-75
2021/10/19 10:38:55;;;;;;;6.13;3.45;;;;;;;11.47;76.46;97169.31;5107404;28;20498;-75
2021/10/19 10:41:21;;;;;;;7.00;3.22;;;;;;;11.51;76.22;97169.53;5108159;28;20552;-75
2021/10/19 10:43:57;;;;;;;8.90;3.70;;;;;;;11.55;76.68;97172.47;5106934;28;20700;-75
2021/10/19 10:46:24;;;;;;;5.13;3.10;;;;;;;11.54;76.46;97160.75;5107889;28;20458;-76
2021/10/19 10:48:52;;;;;;;6.78;3.60;;;;;;;11.52;76.67;97157.50;5107380;28;20043;-75
2021/10/19 10:51:26;;;;;;;5.47;3.85;;;;;;;11.53;77.04;97150.13;5108033;28;20459;-75
2021/10/19 10:53:54;;;;;;;6.00;3.40;;;;;;;11.47;78.00;97146.69;5108211;28;20051;-75
2021/10/19 10:56:21;;;;;;;7.82;3.50;;;;;;;11.41;78.83;97143.28;5107280;28;20056;-75
2021/10/19 10:58:49;;;;;;;7.03;3.95;;;;;;;11.41;79.97;97140.53;5108185;28;20380;-73
2021/10/19 11:01:19;;;;;;;5.10;3.67;;;;;;;11.41;80.15;97139.75;5106645;28;20518;-74
2021/10/19 11:03:47;;;;;;;7.97;4.07;;;;;;;11.49;80.95;97155.41;5108311;28;20050;-75
2021/10/19 11:06:15;;;;;;;7.68;4.07;;;;;;;11.55;80.08;97146.00;5106403;28;20047;-75
2021/10/19 11:08:42;;;;;;;7.65;4.05;;;;;;;11.56;79.97;97136.69;5108025;28;20043;-75
2021/10/19 11:11:12;;;;;;;8.02;3.88;;;;;;;11.60;81.22;97143.16;5106755;28;20140;-75
2021/10/19 11:13:48;;;;;;;7.82;4.70;;;;;;;11.63;81.76;97131.63;5107604;28;20044;-75
2021/10/19 11:16:15;;;;;;;7.88;4.35;;;;;;;11.65;82.41;97123.97;5107288;28;20125;-75
2021/10/19 11:18:41;;;;;;;7.57;4.57;;;;;;;11.77;83.65;97142.53;5110082;28;20047;-75
2021/10/19 11:21:08;;;;;;;8.30;4.18;;;;;;;11.83;83.50;97140.53;5110978;28;20043;-76
2021/10/19 11:23:39;;;;;;;5.63;4.28;;;;;;;11.82;83.09;97123.34;5110844;27;20047;-75
2021/10/19 11:26:07;;;;;;;7.55;4.90;;;;;;;11.81;83.16;97113.53;5111442;28;20036;-77
2021/10/19 11:28:36;;;;;;;8.70;4.50;;;;;;;11.85;83.41;97116.44;5111143;27;20056;-75
2021/10/19 11:31:02;;;;;;;8.05;5.25;;;;;;;11.92;83.71;97105.94;5111132;28;20036;-75